sensor_id;sensor_type;location;lat;lon;timestamp;pressure;altitude;pressure_sealevel;temperature;humidity
3160;BME280;1591;51.486;7.146;2022-08-06T00:01:12;72077.19;;;15.20;100.00
3160;BME280;1591;51.486;7.146;2022-08-06T00:03:39;72070.81;;;15.14;100.00
3160;BME280;1591;51.486;7.146;2022-08-06T00:06:09;72066.75;;;15.11;100.00
3160;BME280;1591;51.486;7.146;2022-08-06T00:08:36;72060.69;;;15.10;100.00
3160;BME280;1591;51.486;7.146;2022-08-06T00:11:03;72062.13;;;15.07;100.00
3160;BME280;1591;51.486;7.146;2022-08-06T00:13:31;72112.97;;;15.39;100.00
3160;BME280;1591;51.486;7.146;2022-08-06T00:15:59;72095.44;;;15.31;100.00
3160;BME280;1591;51.486;7.146;2022-08-06T00:18:31;72086.31;;;15.16;100.00
3160;BME280;1591;51.486;7.146;2022-08-06T00:20:58;72062.44;;;15.12;100.00
3160;BME280;1591;51.486;7.146;2022-08-06T00:23:26;72079.06;;;15.05;100.00
3160;BME280;1591;51.486;7.146;2022-08-06T00:25:54;71995.56;;;14.97;100.00
3160;BME280;1591;51.486;7.146;2022-08-06T00:28:25;72049.22;;;14.93;100.00
3160;BME280;1591;51.486;7.146;2022-08-06T00:30:52;72041.72;;;14.87;100.00
3160;BME280;1591;51.486;7.146;2022-08-06T00:33:19;72043.44;;;14.88;100.00
3160;BME280;1591;51.486;7.146;2022-08-06T00:35:48;72038.97;;;14.87;100.00
3160;BME280;1591;51.486;7.146;2022-08-06T00:38:17;72038.09;;;14.81;100.00
3160;BME280;1591;51.486;7.146;2022-08-06T00:40:49;72036.78;;;14.78;100.00
3160;BME280;1591;51.486;7.146;2022-08-06T00:43:17;72026.22;;;14.76;100.00
3160;BME280;1591;51.486;7.146;2022-08-06T00:45:45;72024.94;;;14.72;100.00
3160;BME280;1591;51.486;7.146;2022-08-06T00:48:14;72023.31;;;14.73;100.00
3160;BME280;1591;51.486;7.146;2022-08-06T00:50:41;72033.16;;;14.72;100.00
3160;BME280;1591;51.486;7.146;2022-08-06T00:53:09;72020.28;;;14.68;100.00
3160;BME280;1591;51.486;7.146;2022-08-06T00:55:36;72017.41;;;14.66;100.00
3160;BME280;1591;51.486;7.146;2022-08-06T00:58:04;71961.13;;;14.62;100.00
3160;BME280;1591;51.486;7.146;2022-08-06T01:00:32;72009.59;;;14.64;100.00
3160;BME280;1591;51.486;7.146;2022-08-06T01:03:00;72003.94;;;14.61;100.00
3160;BME280;1591;51.486;7.146;2022-08-06T01:05:28;72018.09;;;14.59;100.00
3160;BME280;1591;51.486;7.146;2022-08-06T01:07:55;72028.78;;;14.54;100.00
3160;BME280;1591;51.486;7.146;2022-08-06T01:10:24;71996.09;;;14.50;100.00
3160;BME280;1591;51.486;7.146;2022-08-06T01:12:51;71986.13;;;14.48;100.00
3160;BME280;1591;51.486;7.146;2022-08-06T01:15:18;71945.94;;;14.47;100.00
3160;BME280;1591;51.486;7.146;2022-08-06T01:17:58;72004.06;;;14.45;100.00
3160;BME280;1591;51.486;7.146;2022-08-06T01:20:46;71980.91;;;14.44;100.00
3160;BME280;1591;51.486;7.146;2022-08-06T01:23:45;71989.44;;;14.39;100.00
3160;BME280;1591;51.486;7.146;2022-08-06T01:26:32;71984.97;;;14.38;100.00
3160;BME280;1591;51.486;7.146;2022-08-06T01:29:05;71985.97;;;14.36;100.00
3160;BME280;1591;51.486;7.146;2022-08-06T01:31:41;71974.69;;;14.31;100.00
3160;BME280;1591;51.486;7.146;2022-08-06T01:34:14;71965.13;;;14.27;100.00
3160;BME280;1591;51.486;7.146;2022-08-06T01:36:46;71985.63;;;14.21;100.00
3160;BME280;1591;51.486;7.146;2022-08-06T01:39:18;71957.44;;;14.18;100.00
3160;BME280;1591;51.486;7.146;2022-08-06T01:41:51;71963.38;;;14.16;100.00
3160;BME280;1591;51.486;7.146;2022-08-06T01:44:27;71958.75;;;14.12;100.00
3160;BME280;1591;51.486;7.146;2022-08-06T01:47:00;71957.44;;;14.09;100.00
3160;BME280;1591;51.486;7.146;2022-08-06T01:49:29;71964.50;;;14.08;100.00
3160;BME280;1591;51.486;7.146;2022-08-06T01:52:03;71939.25;;;14.07;100.00
3160;BME280;1591;51.486;7.146;2022-08-06T01:54:35;71943.56;;;14.06;100.00
3160;BME280;1591;51.486;7.146;2022-08-06T01:57:06;71970.00;;;14.08;100.00
3160;BME280;1591;51.486;7.146;2022-08-06T01:59:45;71941.81;;;14.05;100.00
3160;BME280;1591;51.486;7.146;2022-08-06T02:02:24;71941.69;;;14.02;100.00
3160;BME280;1591;51.486;7.146;2022-08-06T02:04:55;71937.63;;;13.99;100.00
3160;BME280;1591;51.486;7.146;2022-08-06T02:07:31;71935.88;;;13.97;100.00
3160;BME280;1591;51.486;7.146;2022-08-06T02:10:13;71954.66;;;13.99;100.00
3160;BME280;1591;51.486;7.146;2022-08-06T02:12:45;71949.91;;;14.02;100.00
3160;BME280;1591;51.486;7.146;2022-08-06T02:15:24;71951.06;;;14.03;100.00
3160;BME280;1591;51.486;7.146;2022-08-06T02:17:57;71956.28;;;14.08;100.00
3160;BME280;1591;51.486;7.146;2022-08-06T02:20:30;71957.88;;;14.07;100.00
3160;BME280;1591;51.486;7.146;2022-08-06T02:23:03;71959.31;;;14.13;100.00
3160;BME280;1591;51.486;7.146;2022-08-06T02:25:32;71954.84;;;14.11;100.00
3160;BME280;1591;51.486;7.146;2022-08-06T02:28:02;71947.59;;;14.10;100.00
3160;BME280;1591;51.486;7.146;2022-08-06T02:30:37;71951.09;;;14.13;100.00
3160;BME280;1591;51.486;7.146;2022-08-06T02:33:08;71950.06;;;14.14;100.00
3160;BME280;1591;51.486;7.146;2022-08-06T02:35:42;71956.00;;;14.12;100.00
3160;BME280;1591;51.486;7.146;2022-08-06T02:38:15;71960.34;;;14.11;100.00
3160;BME280;1591;51.486;7.146;2022-08-06T02:40:46;71953.09;;;14.10;100.00
3160;BME280;1591;51.486;7.146;2022-08-06T02:43:22;71950.78;;;14.08;100.00
3160;BME280;1591;51.486;7.146;2022-08-06T02:45:57;71945.56;;;14.03;100.00
3160;BME280;1591;51.486;7.146;2022-08-06T02:48:30;71939.94;;;14.01;100.00
3160;BME280;1591;51.486;7.146;2022-08-06T02:51:07;71941.38;;;13.97;100.00
3160;BME280;1591;51.486;7.146;2022-08-06T02:53:56;71939.47;;;13.93;100.00
3160;BME280;1591;51.486;7.146;2022-08-06T02:56:25;71928.22;;;13.88;100.00
3160;BME280;1591;51.486;7.146;2022-08-06T02:58:55;71942.94;;;13.87;100.00
3160;BME280;1591;51.486;7.146;2022-08-06T03:01:29;71926.34;;;13.84;100.00
3160;BME280;1591;51.486;7.146;2022-08-06T03:03:58;71916.22;;;13.80;100.00
3160;BME280;1591;51.486;7.146;2022-08-06T03:06:30;71918.22;;;13.77;100.00
3160;BME280;1591;51.486;7.146;2022-08-06T03:09:01;71913.31;;;13.78;100.00
3160;BME280;1591;51.486;7.146;2022-08-06T03:11:32;71940.59;;;13.75;100.00
3160;BME280;1591;51.486;7.146;2022-08-06T03:14:04;71906.50;;;13.74;100.00
3160;BME280;1591;51.486;7.146;2022-08-06T03:16:37;71921.41;;;13.75;100.00
3160;BME280;1591;51.486;7.146;2022-08-06T03:19:06;71928.63;;;13.77;100.00
3160;BME280;1591;51.486;7.146;2022-08-06T03:21:36;71915.91;;;13.75;100.00
3160;BME280;1591;51.486;7.146;2022-08-06T03:24:05;71910.44;;;13.75;100.00
3160;BME280;1591;51.486;7.146;2022-08-06T03:26:37;71908.13;;;13.73;100.00
3160;BME280;1591;51.486;7.146;2022-08-06T03:29:06;71926.00;;;13.70;100.00
3160;BME280;1591;51.486;7.146;2022-08-06T03:31:37;71913.44;;;13.71;100.00
3160;BME280;1591;51.486;7.146;2022-08-06T03:34:05;71924.13;;;13.66;100.00
3160;BME280;1591;51.486;7.146;2022-08-06T03:36:35;71911.84;;;13.62;100.00
3160;BME280;1591;51.486;7.146;2022-08-06T03:39:06;71915.00;;;13.60;100.00
3160;BME280;1591;51.486;7.146;2022-08-06T03:41:37;71894.66;;;13.59;100.00
3160;BME280;1591;51.486;7.146;2022-08-06T03:44:05;71893.34;;;13.55;100.00
3160;BME280;1591;51.486;7.146;2022-08-06T03:46:40;71902.31;;;13.59;100.00
3160;BME280;1591;51.486;7.146;2022-08-06T03:49:14;71905.91;;;13.54;100.00
3160;BME280;1591;51.486;7.146;2022-08-06T03:51:44;71881.06;;;13.52;100.00
3160;BME280;1591;51.486;7.146;2022-08-06T03:54:15;71893.22;;;13.53;100.00
3160;BME280;1591;51.486;7.146;2022-08-06T03:56:44;71905.31;;;13.54;100.00
3160;BME280;1591;51.486;7.146;2022-08-06T03:59:12;71844.41;;;13.53;100.00
3160;BME280;1591;51.486;7.146;2022-08-06T04:01:43;71895.53;;;13.55;100.00
3160;BME280;1591;51.486;7.146;2022-08-06T04:04:13;71893.91;;;13.56;100.00
3160;BME280;1591;51.486;7.146;2022-08-06T04:06:42;71895.38;;;13.52;100.00
3160;BME280;1591;51.486;7.146;2022-08-06T04:09:10;71846.59;;;13.53;100.00
3160;BME280;1591;51.486;7.146;2022-08-06T04:11:38;71888.72;;;13.51;100.00
3160;BME280;1591;51.486;7.146;2022-08-06T04:14:06;71902.56;;;13.54;100.00
3160;BME280;1591;51.486;7.146;2022-08-06T04:16:34;71830.13;;;13.53;100.00
3160;BME280;1591;51.486;7.146;2022-08-06T04:19:03;71903.31;;;13.57;100.00
3160;BME280;1591;51.486;7.146;2022-08-06T04:21:31;71894.06;;;13.59;100.00
3160;BME280;1591;51.486;7.146;2022-08-06T04:23:59;71897.41;;;13.59;100.00
3160;BME280;1591;51.486;7.146;2022-08-06T04:26:27;71837.78;;;13.62;100.00
3160;BME280;1591;51.486;7.146;2022-08-06T04:28:56;71900.16;;;13.59;100.00
3160;BME280;1591;51.486;7.146;2022-08-06T04:31:26;71900.72;;;13.60;100.00
3160;BME280;1591;51.486;7.146;2022-08-06T04:33:55;71892.63;;;13.62;100.00
3160;BME280;1591;51.486;7.146;2022-08-06T04:36:25;71902.88;;;13.59;100.00
3160;BME280;1591;51.486;7.146;2022-08-06T04:38:53;71911.84;;;13.62;100.00
3160;BME280;1591;51.486;7.146;2022-08-06T04:41:21;71926.88;;;13.66;100.00
3160;BME280;1591;51.486;7.146;2022-08-06T04:43:49;71898.44;;;13.67;100.00
3160;BME280;1591;51.486;7.146;2022-08-06T04:46:17;71897.84;;;13.67;100.00
3160;BME280;1591;51.486;7.146;2022-08-06T04:48:44;71905.22;;;13.71;100.00
3160;BME280;1591;51.486;7.146;2022-08-06T04:51:11;71909.13;;;13.72;100.00
3160;BME280;1591;51.486;7.146;2022-08-06T04:53:41;71909.13;;;13.72;100.00
3160;BME280;1591;51.486;7.146;2022-08-06T04:56:09;71915.91;;;13.75;100.00
3160;BME280;1591;51.486;7.146;2022-08-06T04:58:37;71926.75;;;13.82;100.00
3160;BME280;1591;51.486;7.146;2022-08-06T05:01:04;71934.13;;;13.86;100.00
3160;BME280;1591;51.486;7.146;2022-08-06T05:03:31;71928.50;;;13.93;100.00
3160;BME280;1591;51.486;7.146;2022-08-06T05:06:03;71944.25;;;14.00;100.00
3160;BME280;1591;51.486;7.146;2022-08-06T05:08:38;71941.97;;;14.07;100.00
3160;BME280;1591;51.486;7.146;2022-08-06T05:11:13;71952.22;;;14.14;100.00
3160;BME280;1591;51.486;7.146;2022-08-06T05:13:44;71954.28;;;14.20;100.00
3160;BME280;1591;51.486;7.146;2022-08-06T05:16:14;71968.19;;;14.32;100.00
3160;BME280;1591;51.486;7.146;2022-08-06T05:18:48;71978.59;;;14.42;100.00
3160;BME280;1591;51.486;7.146;2022-08-06T05:21:22;72007.13;;;14.59;100.00
3160;BME280;1591;51.486;7.146;2022-08-06T05:23:53;72040.69;;;14.79;100.00
3160;BME280;1591;51.486;7.146;2022-08-06T05:26:23;72054.59;;;15.00;100.00
3160;BME280;1591;51.486;7.146;2022-08-06T05:28:51;72069.06;;;15.13;100.00
3160;BME280;1591;51.486;7.146;2022-08-06T05:31:30;72083.84;;;15.21;100.00
3160;BME280;1591;51.486;7.146;2022-08-06T05:34:01;72100.22;;;15.28;100.00
3160;BME280;1591;51.486;7.146;2022-08-06T05:36:29;72093.25;;;15.32;100.00
3160;BME280;1591;51.486;7.146;2022-08-06T05:38:56;72104.13;;;15.39;100.00
3160;BME280;1591;51.486;7.146;2022-08-06T05:41:25;72101.28;;;15.46;100.00
3160;BME280;1591;51.486;7.146;2022-08-06T05:43:52;72150.22;;;15.64;100.00
3160;BME280;1591;51.486;7.146;2022-08-06T05:46:21;72152.56;;;15.85;100.00
3160;BME280;1591;51.486;7.146;2022-08-06T05:48:55;72187.03;;;16.20;100.00
3160;BME280;1591;51.486;7.146;2022-08-06T05:51:37;72253.59;;;16.66;100.00
3160;BME280;1591;51.486;7.146;2022-08-06T05:54:13;72293.47;;;17.08;100.00
3160;BME280;1591;51.486;7.146;2022-08-06T05:56:44;72327.25;;;17.39;100.00
3160;BME280;1591;51.486;7.146;2022-08-06T05:59:19;72340.91;;;17.46;100.00
3160;BME280;1591;51.486;7.146;2022-08-06T06:01:48;72346.16;;;17.51;100.00
3160;BME280;1591;51.486;7.146;2022-08-06T06:04:16;72336.13;;;17.50;100.00
3160;BME280;1591;51.486;7.146;2022-08-06T06:06:44;72323.06;;;17.33;100.00
3160;BME280;1591;51.486;7.146;2022-08-06T06:09:12;72309.84;;;17.24;100.00
3160;BME280;1591;51.486;7.146;2022-08-06T06:11:43;72302.19;;;17.15;100.00
3160;BME280;1591;51.486;7.146;2022-08-06T06:14:39;72302.47;;;17.11;100.00
3160;BME280;1591;51.486;7.146;2022-08-06T06:17:34;72295.94;;;17.12;100.00
3160;BME280;1591;51.486;7.146;2022-08-06T06:20:12;72302.91;;;17.18;100.00
3160;BME280;1591;51.486;7.146;2022-08-06T06:25:34;72312.91;;;17.29;100.00
3160;BME280;1591;51.486;7.146;2022-08-06T06:28:16;72338.88;;;17.40;100.00
3160;BME280;1591;51.486;7.146;2022-08-06T06:30:58;72338.16;;;17.46;100.00
3160;BME280;1591;51.486;7.146;2022-08-06T06:33:36;72365.47;;;17.51;100.00
3160;BME280;1591;51.486;7.146;2022-08-06T06:36:15;72357.47;;;17.46;100.00
3160;BME280;1591;51.486;7.146;2022-08-06T06:38:57;72341.78;;;17.52;100.00
3160;BME280;1591;51.486;7.146;2022-08-06T06:41:33;72351.81;;;17.54;100.00
3160;BME280;1591;51.486;7.146;2022-08-06T06:44:11;72346.13;;;17.61;100.00
3160;BME280;1591;51.486;7.146;2022-08-06T06:46:45;72367.91;;;17.75;100.00
3160;BME280;1591;51.486;7.146;2022-08-06T06:49:22;72385.91;;;17.90;100.00
3160;BME280;1591;51.486;7.146;2022-08-06T06:51:55;72413.06;;;18.02;100.00
3160;BME280;1591;51.486;7.146;2022-08-06T06:54:31;72417.16;;;18.05;100.00
3160;BME280;1591;51.486;7.146;2022-08-06T06:57:01;72419.59;;;18.19;100.00
3160;BME280;1591;51.486;7.146;2022-08-06T06:59:34;72421.59;;;18.26;100.00
3160;BME280;1591;51.486;7.146;2022-08-06T07:02:04;72462.88;;;18.43;100.00
3160;BME280;1591;51.486;7.146;2022-08-06T07:04:32;72463.00;;;18.55;100.00
3160;BME280;1591;51.486;7.146;2022-08-06T07:07:03;72465.03;;;18.61;100.00
3160;BME280;1591;51.486;7.146;2022-08-06T07:09:33;72462.13;;;18.59;100.00
3160;BME280;1591;51.486;7.146;2022-08-06T07:12:03;72469.97;;;18.61;100.00
3160;BME280;1591;51.486;7.146;2022-08-06T07:14:36;72497.88;;;18.85;100.00
3160;BME280;1591;51.486;7.146;2022-08-06T07:17:05;72497.25;;;18.94;100.00
3160;BME280;1591;51.486;7.146;2022-08-06T07:19:34;72509.91;;;19.02;100.00
3160;BME280;1591;51.486;7.146;2022-08-06T07:22:03;72503.06;;;18.99;100.00
3160;BME280;1591;51.486;7.146;2022-08-06T07:24:36;72487.97;;;18.86;100.00
3160;BME280;1591;51.486;7.146;2022-08-06T07:27:04;72494.53;;;18.84;100.00
3160;BME280;1591;51.486;7.146;2022-08-06T07:29:36;72505.25;;;18.98;100.00
3160;BME280;1591;51.486;7.146;2022-08-06T07:32:06;72521.38;;;19.10;100.00
3160;BME280;1591;51.486;7.146;2022-08-06T07:34:34;72551.31;;;19.41;100.00
3160;BME280;1591;51.486;7.146;2022-08-06T07:37:03;72578.03;;;19.64;100.00
3160;BME280;1591;51.486;7.146;2022-08-06T07:39:37;72580.97;;;19.66;100.00
3160;BME280;1591;51.486;7.146;2022-08-06T07:42:08;72578.19;;;19.66;100.00
3160;BME280;1591;51.486;7.146;2022-08-06T07:44:42;72570.03;;;19.59;100.00
3160;BME280;1591;51.486;7.146;2022-08-06T07:47:16;72570.34;;;19.55;100.00
3160;BME280;1591;51.486;7.146;2022-08-06T07:49:57;72567.56;;;19.55;100.00
3160;BME280;1591;51.486;7.146;2022-08-06T07:52:26;72567.63;;;19.45;100.00
3160;BME280;1591;51.486;7.146;2022-08-06T07:54:56;72575.00;;;19.59;100.00
3160;BME280;1591;51.486;7.146;2022-08-06T07:57:25;72576.03;;;19.57;100.00
3160;BME280;1591;51.486;7.146;2022-08-06T07:59:55;72582.69;;;19.68;100.00
3160;BME280;1591;51.486;7.146;2022-08-06T08:02:24;72590.28;;;19.65;100.00
3160;BME280;1591;51.486;7.146;2022-08-06T08:04:52;72596.53;;;19.68;100.00
3160;BME280;1591;51.486;7.146;2022-08-06T08:07:38;72594.75;;;19.76;100.00
3160;BME280;1591;51.486;7.146;2022-08-06T08:10:10;72608.25;;;19.90;100.00
3160;BME280;1591;51.486;7.146;2022-08-06T08:12:38;72610.31;;;19.87;100.00
3160;BME280;1591;51.486;7.146;2022-08-06T08:15:09;72598.13;;;19.76;100.00
3160;BME280;1591;51.486;7.146;2022-08-06T08:17:38;72613.53;;;19.85;100.00
3160;BME280;1591;51.486;7.146;2022-08-06T08:20:07;72626.16;;;20.03;100.00
3160;BME280;1591;51.486;7.146;2022-08-06T08:22:35;72655.00;;;20.23;100.00
3160;BME280;1591;51.486;7.146;2022-08-06T08:25:05;72682.00;;;20.51;100.00
3160;BME280;1591;51.486;7.146;2022-08-06T08:27:36;72705.13;;;20.69;100.00
3160;BME280;1591;51.486;7.146;2022-08-06T08:30:15;72699.91;;;20.65;100.00
3160;BME280;1591;51.486;7.146;2022-08-06T08:32:42;72707.78;;;20.67;100.00
3160;BME280;1591;51.486;7.146;2022-08-06T08:35:10;72697.81;;;20.68;100.00
3160;BME280;1591;51.486;7.146;2022-08-06T08:37:37;72707.47;;;20.71;100.00
3160;BME280;1591;51.486;7.146;2022-08-06T08:40:05;72706.69;;;20.78;100.00
3160;BME280;1591;51.486;7.146;2022-08-06T08:42:40;72695.50;;;20.66;94.11
3160;BME280;1591;51.486;7.146;2022-08-06T08:45:21;72678.78;;;20.53;95.60
3160;BME280;1591;51.486;7.146;2022-08-06T08:47:51;72693.63;;;20.62;94.43
3160;BME280;1591;51.486;7.146;2022-08-06T08:50:21;72695.25;;;20.61;95.07
3160;BME280;1591;51.486;7.146;2022-08-06T08:52:51;72646.38;;;20.18;91.98
3160;BME280;1591;51.486;7.146;2022-08-06T08:55:22;72654.66;;;20.28;93.14
3160;BME280;1591;51.486;7.146;2022-08-06T08:57:51;72680.25;;;20.50;93.97
3160;BME280;1591;51.486;7.146;2022-08-06T09:00:23;72707.84;;;20.79;91.94
3160;BME280;1591;51.486;7.146;2022-08-06T09:02:51;72731.44;;;20.94;89.35
3160;BME280;1591;51.486;7.146;2022-08-06T09:05:20;72744.69;;;21.03;89.02
3160;BME280;1591;51.486;7.146;2022-08-06T09:07:49;72749.75;;;21.15;90.85
3160;BME280;1591;51.486;7.146;2022-08-06T09:10:19;72761.53;;;21.27;86.22
3160;BME280;1591;51.486;7.146;2022-08-06T09:12:48;72782.72;;;21.29;87.20
3160;BME280;1591;51.486;7.146;2022-08-06T09:15:16;72783.81;;;21.40;85.60
3160;BME280;1591;51.486;7.146;2022-08-06T09:17:45;72801.88;;;21.55;86.40
3160;BME280;1591;51.486;7.146;2022-08-06T09:20:14;72808.44;;;21.54;84.12
3160;BME280;1591;51.486;7.146;2022-08-06T09:22:43;72806.41;;;21.57;81.72
3160;BME280;1591;51.486;7.146;2022-08-06T09:25:37;72797.03;;;21.58;78.99
3160;BME280;1591;51.486;7.146;2022-08-06T09:28:09;72814.22;;;21.68;78.13
3160;BME280;1591;51.486;7.146;2022-08-06T09:30:38;72829.97;;;21.82;78.50
3160;BME280;1591;51.486;7.146;2022-08-06T09:33:14;72864.38;;;22.02;80.51
3160;BME280;1591;51.486;7.146;2022-08-06T09:35:43;72864.88;;;22.12;79.91
3160;BME280;1591;51.486;7.146;2022-08-06T09:38:23;72863.59;;;22.08;76.40
3160;BME280;1591;51.486;7.146;2022-08-06T09:41:08;72863.47;;;22.06;77.71
3160;BME280;1591;51.486;7.146;2022-08-06T09:43:37;72870.56;;;22.14;75.39
3160;BME280;1591;51.486;7.146;2022-08-06T09:46:06;72853.00;;;21.97;73.57
3160;BME280;1591;51.486;7.146;2022-08-06T09:48:35;72821.19;;;21.74;73.09
3160;BME280;1591;51.486;7.146;2022-08-06T09:51:21;72849.88;;;22.01;74.49
3160;BME280;1591;51.486;7.146;2022-08-06T09:53:52;72874.91;;;22.23;75.63
3160;BME280;1591;51.486;7.146;2022-08-06T09:56:20;72861.41;;;22.09;75.19
3160;BME280;1591;51.486;7.146;2022-08-06T09:58:47;72880.16;;;22.28;76.78
3160;BME280;1591;51.486;7.146;2022-08-06T10:01:18;72888.38;;;22.25;75.28
3160;BME280;1591;51.486;7.146;2022-08-06T10:03:47;72874.09;;;22.18;75.16
3160;BME280;1591;51.486;7.146;2022-08-06T10:06:17;72857.34;;;22.05;75.61
3160;BME280;1591;51.486;7.146;2022-08-06T10:08:49;72879.13;;;22.29;75.28
3160;BME280;1591;51.486;7.146;2022-08-06T10:11:33;72886.56;;;22.33;72.56
3160;BME280;1591;51.486;7.146;2022-08-06T10:14:00;72873.63;;;22.20;72.51
3160;BME280;1591;51.486;7.146;2022-08-06T10:16:28;72854.72;;;21.98;72.95
3160;BME280;1591;51.486;7.146;2022-08-06T10:18:59;72839.59;;;21.85;75.52
3160;BME280;1591;51.486;7.146;2022-08-06T10:21:32;72826.19;;;21.74;75.75
3160;BME280;1591;51.486;7.146;2022-08-06T10:24:08;72840.44;;;21.91;74.68
3160;BME280;1591;51.486;7.146;2022-08-06T10:26:55;72848.00;;;21.97;73.28
3160;BME280;1591;51.486;7.146;2022-08-06T10:29:24;72843.34;;;21.93;74.87
3160;BME280;1591;51.486;7.146;2022-08-06T10:31:54;72862.91;;;22.05;76.44
3160;BME280;1591;51.486;7.146;2022-08-06T10:34:27;72873.63;;;22.20;73.11
3160;BME280;1591;51.486;7.146;2022-08-06T10:37:04;72835.31;;;21.89;69.88
3160;BME280;1591;51.486;7.146;2022-08-06T10:39:35;72809.44;;;21.62;72.65
3160;BME280;1591;51.486;7.146;2022-08-06T10:42:05;72782.69;;;21.39;71.70
3160;BME280;1591;51.486;7.146;2022-08-06T10:44:34;72773.47;;;21.33;72.69
3160;BME280;1591;51.486;7.146;2022-08-06T10:47:03;72799.81;;;21.58;73.17
3160;BME280;1591;51.486;7.146;2022-08-06T10:49:33;72849.63;;;21.96;75.56
3160;BME280;1591;51.486;7.146;2022-08-06T10:52:01;72882.34;;;22.27;70.09
3160;BME280;1591;51.486;7.146;2022-08-06T10:54:31;72903.19;;;22.43;69.12
3160;BME280;1591;51.486;7.146;2022-08-06T10:56:59;72908.94;;;22.57;72.52
3160;BME280;1591;51.486;7.146;2022-08-06T10:59:27;72920.94;;;22.63;72.75
3160;BME280;1591;51.486;7.146;2022-08-06T11:02:01;72904.75;;;22.51;71.77
3160;BME280;1591;51.486;7.146;2022-08-06T11:04:45;72897.38;;;22.38;71.83
3160;BME280;1591;51.486;7.146;2022-08-06T11:07:47;72895.88;;;22.41;71.95
3160;BME280;1591;51.486;7.146;2022-08-06T11:10:47;72894.34;;;22.33;73.84
3160;BME280;1591;51.486;7.146;2022-08-06T11:13:29;72879.56;;;22.27;72.42
3160;BME280;1591;51.486;7.146;2022-08-06T11:15:59;72878.28;;;22.24;70.38
3160;BME280;1591;51.486;7.146;2022-08-06T11:18:28;72879.44;;;22.25;68.35
3160;BME280;1591;51.486;7.146;2022-08-06T11:20:57;72886.91;;;22.29;66.64
3160;BME280;1591;51.486;7.146;2022-08-06T11:23:30;72908.56;;;22.50;68.18
3160;BME280;1591;51.486;7.146;2022-08-06T11:26:03;72937.97;;;22.80;66.20
3160;BME280;1591;51.486;7.146;2022-08-06T11:29:02;72995.72;;;23.20;65.98
3160;BME280;1591;51.486;7.146;2022-08-06T11:31:40;72989.94;;;23.27;66.19
3160;BME280;1591;51.486;7.146;2022-08-06T11:34:17;73014.75;;;23.44;67.00
3160;BME280;1591;51.486;7.146;2022-08-06T11:37:05;73015.22;;;23.42;64.99
3160;BME280;1591;51.486;7.146;2022-08-06T11:40:07;72980.81;;;23.12;65.45
3160;BME280;1591;51.486;7.146;2022-08-06T11:42:42;72946.59;;;22.85;67.12
3160;BME280;1591;51.486;7.146;2022-08-06T11:45:16;72912.66;;;22.53;67.08
3160;BME280;1591;51.486;7.146;2022-08-06T11:48:04;72884.69;;;22.29;66.19
3160;BME280;1591;51.486;7.146;2022-08-06T11:50:38;72865.00;;;22.14;64.58
3160;BME280;1591;51.486;7.146;2022-08-06T11:53:08;72886.69;;;22.36;66.10
3160;BME280;1591;51.486;7.146;2022-08-06T11:56:05;72921.66;;;22.66;64.49
3160;BME280;1591;51.486;7.146;2022-08-06T11:58:34;72940.16;;;22.79;62.89
3160;BME280;1591;51.486;7.146;2022-08-06T12:01:03;72970.78;;;23.01;64.62
3160;BME280;1591;51.486;7.146;2022-08-06T12:03:39;72999.19;;;23.23;61.98
3160;BME280;1591;51.486;7.146;2022-08-06T12:06:26;73044.69;;;23.62;63.70
3160;BME280;1591;51.486;7.146;2022-08-06T12:09:10;73075.97;;;23.97;62.05
3160;BME280;1591;51.486;7.146;2022-08-06T12:14:57;73140.59;;;24.50;59.75
3160;BME280;1591;51.486;7.146;2022-08-06T12:17:27;73098.72;;;24.16;59.24
3160;BME280;1591;51.486;7.146;2022-08-06T12:20:00;73073.03;;;23.94;60.99
3160;BME280;1591;51.486;7.146;2022-08-06T12:22:32;73061.25;;;23.82;61.43
3160;BME280;1591;51.486;7.146;2022-08-06T12:25:05;73013.00;;;23.42;61.70
3160;BME280;1591;51.486;7.146;2022-08-06T12:27:50;73007.66;;;23.35;61.58
3160;BME280;1591;51.486;7.146;2022-08-06T12:30:23;72997.00;;;23.24;59.79
3160;BME280;1591;51.486;7.146;2022-08-06T12:33:00;73012.31;;;23.39;61.45
3160;BME280;1591;51.486;7.146;2022-08-06T12:35:28;73054.72;;;23.74;61.74
3160;BME280;1591;51.486;7.146;2022-08-06T12:37:55;73075.97;;;23.97;65.79
3160;BME280;1591;51.486;7.146;2022-08-06T12:40:25;73104.66;;;24.24;63.57
3160;BME280;1591;51.486;7.146;2022-08-06T12:43:10;73165.22;;;24.74;61.43
3160;BME280;1591;51.486;7.146;2022-08-06T12:45:38;73173.97;;;24.81;63.30
3160;BME280;1591;51.486;7.146;2022-08-06T12:48:07;73172.94;;;24.83;63.57
3160;BME280;1591;51.486;7.146;2022-08-06T12:50:38;73182.16;;;24.88;59.47
3160;BME280;1591;51.486;7.146;2022-08-06T12:53:11;73206.28;;;25.14;58.30
3160;BME280;1591;51.486;7.146;2022-08-06T12:55:44;73212.00;;;25.16;57.00
3160;BME280;1591;51.486;7.146;2022-08-06T12:58:18;73203.72;;;25.07;55.14
3160;BME280;1591;51.486;7.146;2022-08-06T13:00:48;73185.06;;;24.91;57.08
3160;BME280;1591;51.486;7.146;2022-08-06T13:03:22;73180.97;;;24.87;57.38
3160;BME280;1591;51.486;7.146;2022-08-06T13:05:54;73115.63;;;24.31;56.93
3160;BME280;1591;51.486;7.146;2022-08-06T13:08:25;73082.50;;;24.05;57.70
3160;BME280;1591;51.486;7.146;2022-08-06T13:10:56;73075.16;;;24.03;57.94
3160;BME280;1591;51.486;7.146;2022-08-06T13:13:37;73089.84;;;24.06;58.69
3160;BME280;1591;51.486;7.146;2022-08-06T13:16:09;73078.19;;;23.96;58.87
3160;BME280;1591;51.486;7.146;2022-08-06T13:18:41;73066.50;;;23.86;57.04
3160;BME280;1591;51.486;7.146;2022-08-06T13:21:18;73063.38;;;23.91;57.15
3160;BME280;1591;51.486;7.146;2022-08-06T13:23:49;73076.88;;;23.93;58.79
3160;BME280;1591;51.486;7.146;2022-08-06T13:26:48;73047.03;;;23.64;57.57
3160;BME280;1591;51.486;7.146;2022-08-06T13:29:21;73061.59;;;23.77;58.60
3160;BME280;1591;51.486;7.146;2022-08-06T13:32:03;73040.41;;;23.66;57.23
3160;BME280;1591;51.486;7.146;2022-08-06T13:34:55;73051.59;;;23.78;58.42
3160;BME280;1591;51.486;7.146;2022-08-06T13:38:35;73072.47;;;23.94;57.76
3160;BME280;1591;51.486;7.146;2022-08-06T13:41:29;73096.53;;;24.17;59.49
3160;BME280;1591;51.486;7.146;2022-08-06T13:43:59;73094.75;;;24.15;56.18
3160;BME280;1591;51.486;7.146;2022-08-06T13:46:43;73143.72;;;24.45;55.96
3160;BME280;1591;51.486;7.146;2022-08-06T13:49:12;73129.63;;;24.43;55.97
3160;BME280;1591;51.486;7.146;2022-08-06T13:51:43;73134.28;;;24.47;57.58